Time;durP1;ratioP1;P1;durP2;ratioP2;P2;SDS_P1;SDS_P2;PMS_P1;PMS_P2;Temp;Humidity;BMP_temperature;BMP_pressure;BME280_temperature;BME280_humidity;BME280_pressure;Samples;Min_cycle;Max_cycle;Signal;HPM_P1;HPM_P2
2021/09/10 00:02:45;;;;;;;;;63.50;50.50;;;;;14.67;63.08;101699.56;4840698;29;11719;-86
2021/09/10 00:05:40;;;;;;;;;64.25;52.00;;;;;14.64;63.17;101703.00;4828645;29;11718;-85
2021/09/10 00:08:36;;;;;;;;;71.25;56.75;;;;;14.84;63.28;101702.28;4828818;29;11687;-86
2021/09/10 00:11:32;;;;;;;;;61.50;50.50;;;;;14.56;62.91;101701.06;4857527;29;11710;-86
2021/09/10 00:14:27;;;;;;;;;54.50;43.00;;;;;14.59;62.65;101698.47;4860035;29;11731;-85
2021/09/10 00:17:23;;;;;;;;;70.25;55.75;;;;;14.51;63.54;101707.66;4861619;29;11782;-85
2021/09/10 00:20:19;;;;;;;;;66.00;52.75;;;;;14.29;64.72;101705.06;4861643;29;11719;-85
2021/09/10 00:23:14;;;;;;;;;58.25;48.50;;;;;14.43;64.74;101703.72;4861319;29;11700;-85
2021/09/10 00:26:10;;;;;;;;;68.50;55.00;;;;;14.42;65.04;101704.06;4843553;29;12119;-85
2021/09/10 00:29:05;;;;;;;;;66.25;54.00;;;;;14.39;64.37;101701.94;4851896;29;11711;-86
2021/09/10 00:32:01;;;;;;;;;72.75;56.00;;;;;14.28;64.29;101700.66;4850032;29;11780;-85
2021/09/10 00:34:57;;;;;;;;;67.00;53.50;;;;;14.13;64.88;101702.00;4848375;29;11754;-85
2021/09/10 00:37:52;;;;;;;;;76.25;57.75;;;;;14.06;65.45;101702.50;4860077;29;11766;-85
2021/09/10 00:40:34;;;;;;;;;76.00;57.75;;;;;14.02;65.50;101695.94;4852593;29;11791;-85
2021/09/10 00:43:29;;;;;;;;;70.50;55.75;;;;;14.28;65.61;101697.88;4843326;29;11785;-86
2021/09/10 00:46:25;;;;;;;;;68.00;54.75;;;;;14.20;65.47;101699.53;4855202;29;11737;-86
2021/09/10 00:49:20;;;;;;;;;75.25;58.25;;;;;14.21;64.61;101695.59;4860986;29;11802;-86
2021/09/10 00:52:17;;;;;;;;;61.25;50.00;;;;;14.17;64.65;101695.44;4849670;29;11835;-86
2021/09/10 00:55:13;;;;;;;;;71.00;54.75;;;;;14.03;65.07;101693.97;4861871;29;11763;-86
2021/09/10 00:58:09;;;;;;;;;65.75;50.25;;;;;14.15;64.71;101692.16;4861395;29;11766;-86
2021/09/10 01:01:04;;;;;;;;;63.25;52.00;;;;;14.27;64.29;101687.91;4861995;29;11737;-86
2021/09/10 01:04:02;;;;;;;;;67.50;52.75;;;;;14.37;63.95;101690.31;4860804;29;11684;-85
2021/09/10 01:06:59;;;;;;;;;66.75;52.25;;;;;14.19;64.41;101695.94;4860984;29;11766;-85
2021/09/10 01:09:56;;;;;;;;;59.75;50.50;;;;;14.09;64.14;101690.69;4844992;29;11884;-85
2021/09/10 01:12:53;;;;;;;;;68.00;55.00;;;;;14.17;64.67;101691.84;4842558;29;11758;-85
2021/09/10 01:15:49;;;;;;;;;64.50;53.25;;;;;13.91;65.12;101689.94;4842121;29;11755;-85
2021/09/10 01:18:45;;;;;;;;;67.00;54.00;;;;;13.84;65.45;101695.16;4861031;29;11772;-85
2021/09/10 01:21:41;;;;;;;;;60.50;50.25;;;;;13.77;65.44;101691.25;4860518;29;11758;-86
2021/09/10 01:24:39;;;;;;;;;65.75;52.00;;;;;13.78;65.76;101690.09;4861086;29;11665;-86
2021/09/10 01:27:34;;;;;;;;;69.50;55.75;;;;;13.87;65.25;101682.56;4859973;29;11861;-86
2021/09/10 01:30:32;;;;;;;;;63.25;49.50;;;;;13.99;65.17;101688.28;4861219;29;11889;-86
2021/09/10 01:33:28;;;;;;;;;65.00;51.00;;;;;14.11;65.62;101682.88;4860591;29;11679;-86
2021/09/10 01:36:23;;;;;;;;;57.00;43.75;;;;;13.86;64.80;101681.75;4860464;29;12514;-86
2021/09/10 01:39:19;;;;;;;;;70.25;52.75;;;;;13.93;64.61;101680.44;4848447;29;11839;-86
2021/09/10 01:42:14;;;;;;;;;68.25;55.50;;;;;13.80;64.67;101679.47;4861028;29;11826;-87
2021/09/10 01:45:12;;;;;;;;;61.25;51.25;;;;;13.81;65.07;101667.22;4861104;29;11743;-87
2021/09/10 01:48:07;;;;;;;;;62.50;51.50;;;;;13.61;65.58;101668.69;4860368;29;11755;-87
2021/09/10 01:51:03;;;;;;;;;71.25;54.00;;;;;13.74;64.99;101664.13;4848705;29;11849;-87
2021/09/10 01:53:59;;;;;;;;;75.75;58.00;;;;;13.51;65.73;101669.03;4859940;29;11865;-86
2021/09/10 01:56:55;;;;;;;;;64.00;52.75;;;;;13.51;65.18;101664.28;4848490;29;12597;-86
2021/09/10 01:59:51;;;;;;;;;65.00;52.50;;;;;13.51;65.54;101664.28;4860420;29;11928;-86
2021/09/10 02:02:46;;;;;;;;;69.00;54.00;;;;;13.47;65.52;101668.84;4860591;29;11787;-86
2021/09/10 02:05:42;;;;;;;;;67.00;53.00;;;;;13.46;65.68;101671.97;4859993;29;11759;-87
2021/09/10 02:08:37;;;;;;;;;68.25;54.50;;;;;13.34;65.99;101667.03;4859858;29;11771;-86
2021/09/10 02:11:33;;;;;;;;;76.25;56.50;;;;;13.28;66.46;101660.84;4843014;29;11746;-86
2021/09/10 02:14:30;;;;;;;;;69.00;55.00;;;;;13.66;66.36;101659.38;4848310;29;11751;-86
2021/09/10 02:17:25;;;;;;;;;84.25;71.25;;;;;13.75;65.11;101651.84;4838023;29;11747;-87
2021/09/10 02:20:21;;;;;;;;;119.00;94.33;;;;;13.58;65.37;101659.06;4852801;29;11759;-86
2021/09/10 02:23:17;;;;;;;;;157.33;128.33;;;;;13.51;66.04;101653.16;4841042;29;8899;-86
2021/09/10 02:26:12;;;;;;;;;157.33;130.00;;;;;13.47;65.39;101659.69;4842605;29;8868;-85
2021/09/10 02:29:08;;;;;;;;;136.33;113.33;;;;;13.52;65.91;101654.81;4840960;29;8933;-86
2021/09/10 02:32:04;;;;;;;;;116.00;108.33;;;;;13.55;65.52;101661.66;4840819;29;8867;-85
2021/09/10 02:35:00;;;;;;;;;141.67;122.33;;;;;13.46;65.22;101653.31;4842379;29;8880;-85
2021/09/10 02:37:55;;;;;;;;;116.33;100.33;;;;;13.41;65.48;101664.59;4853357;29;9014;-85
2021/09/10 02:40:52;;;;;;;;;109.33;98.67;;;;;13.32;65.53;101655.44;4840863;29;8886;-85
2021/09/10 02:43:47;;;;;;;;;115.00;102.33;;;;;13.28;65.66;101657.25;4840817;29;8856;-84
2021/09/10 02:46:43;;;;;;;;;96.00;83.00;;;;;13.33;66.03;101657.06;4844401;29;8872;-84
2021/09/10 02:49:38;;;;;;;;;90.75;79.50;;;;;13.31;65.61;101653.81;4824210;29;11782;-85
2021/09/10 02:52:35;;;;;;;;;95.50;78.25;;;;;13.18;65.43;101651.97;4830369;29;11750;-85
2021/09/10 02:55:30;;;;;;;;;94.67;88.33;;;;;13.17;65.99;101650.34;4852463;29;11769;-84
2021/09/10 02:58:27;;;;;;;;;133.33;117.33;;;;;13.20;65.14;101658.06;4839945;29;11758;-84
2021/09/10 03:01:22;;;;;;;;;147.67;123.67;;;;;13.15;65.51;101656.22;4832295;29;8867;-85
2021/09/10 03:04:18;;;;;;;;;149.67;130.33;;;;;13.03;66.34;101648.53;4846310;29;8871;-84
2021/09/10 03:07:14;;;;;;;;;137.67;117.67;;;;;13.23;65.82;101651.84;4851208;29;8872;-82
2021/09/10 03:10:12;;;;;;;;;124.33;110.67;;;;;13.35;65.04;101654.81;4840567;29;8876;-89
2021/09/10 03:13:07;;;;;;;;;127.67;105.00;;;;;13.29;65.08;101650.56;4852428;29;8876;-89
2021/09/10 03:16:03;;;;;;;;;119.00;103.00;;;;;13.32;64.90;101652.66;4868509;29;8933;-88
2021/09/10 03:18:59;;;;;;;;;120.33;99.67;;;;;13.31;64.60;101657.41;4848956;29;9594;-88
2021/09/10 03:21:55;;;;;;;;;123.33;103.67;;;;;13.25;65.41;101660.66;4859074;29;8878;-86
2021/09/10 03:24:51;;;;;;;;;166.00;144.00;;;;;13.21;65.08;101665.25;4848963;29;8902;-86
2021/09/10 03:27:46;;;;;;;;;155.33;127.67;;;;;13.13;65.43;101663.25;4847546;29;8890;-88
2021/09/10 03:30:42;;;;;;;;;178.00;138.00;;;;;13.06;65.59;101659.00;4847870;29;8981;-88
2021/09/10 03:33:38;;;;;;;;;154.00;125.33;;;;;13.09;65.54;101658.31;4861421;29;8866;-84
2021/09/10 03:36:34;;;;;;;;;156.00;127.00;;;;;13.19;65.16;101661.94;4829289;29;8911;-86
2021/09/10 03:39:30;;;;;;;;;141.33;119.33;;;;;13.14;65.11;101667.66;4842359;29;8881;-87
2021/09/10 03:42:25;;;;;;;;;131.33;116.67;;;;;13.14;65.43;101667.66;4829100;29;9668;-88
2021/09/10 03:45:21;;;;;;;;;147.33;122.33;;;;;13.19;64.84;101668.31;4829159;29;8908;-88
2021/09/10 03:48:17;;;;;;;;;155.67;133.00;;;;;13.24;65.22;101665.41;4849742;29;9633;-89
2021/09/10 03:51:12;;;;;;;;;125.33;110.00;;;;;13.32;65.18;101663.78;4851491;29;8894;-86
2021/09/10 03:54:08;;;;;;;;;130.33;114.00;;;;;13.42;65.39;101663.47;4874155;29;8867;-89
2021/09/10 03:57:04;;;;;;;;;83.33;59.67;;;;;13.55;64.93;101661.66;4863697;29;8885;-85
2021/09/10 04:00:00;;;;;;;;;124.33;112.67;;;;;13.69;64.38;101665.09;4874189;29;8878;-85
2021/09/10 04:02:55;;;;;;;;;131.00;115.00;;;;;13.66;64.31;101664.94;4851377;29;8882;-88
2021/09/10 04:05:51;;;;;;;;;104.67;92.33;;;;;13.75;64.24;101663.78;4849388;29;8974;-89
2021/09/10 04:08:48;;;;;;;;;99.67;89.33;;;;;13.73;64.67;101668.84;4832336;29;8903;-86
2021/09/10 04:11:44;;;;;;;;;103.00;92.67;;;;;13.77;63.14;101678.16;4844459;29;8915;-88
2021/09/10 04:14:39;;;;;;;;;105.33;96.67;;;;;13.77;63.12;101674.56;4832219;29;11820;-87
2021/09/10 04:17:35;;;;;;;;;96.33;91.67;;;;;13.80;62.69;101676.69;4868704;29;11746;-88
2021/09/10 04:20:33;;;;;;;;;85.25;74.00;;;;;13.84;63.47;101680.44;4871212;29;11902;-88
2021/09/10 04:23:29;;;;;;;;;97.00;87.33;;;;;14.04;62.34;101682.56;4881494;29;11763;-87
2021/09/10 04:26:24;;;;;;;;;102.33;94.33;;;;;14.02;61.40;101676.47;4883581;29;11777;-90
2021/09/10 04:29:20;;;;;;;;;113.67;103.00;;;;;14.23;62.09;101684.13;4873417;29;8880;-90
2021/09/10 04:32:15;;;;;;;;;137.00;121.00;;;;;14.57;62.37;101681.28;4881547;29;8895;-87
2021/09/10 04:35:12;;;;;;;;;155.00;121.67;;;;;14.63;59.65;101682.69;4882351;29;9079;-89
2021/09/10 04:38:08;;;;;;;;;116.00;87.67;;;;;14.37;57.92;101687.53;4869311;29;9622;-85
2021/09/10 04:41:03;;;;;;;;;108.67;92.33;;;;;14.56;60.75;101673.22;4869323;29;8882;-88
2021/09/10 04:44:00;;;;;;;;;150.67;113.00;;;;;14.62;59.77;101675.50;4881104;29;8891;-87
2021/09/10 04:46:55;;;;;;;;;95.00;79.25;;;;;14.80;56.97;101675.41;4880899;29;8868;-86
2021/09/10 04:49:51;;;;;;;;;86.25;78.00;;;;;15.06;61.08;101670.53;4869100;29;11901;-85
2021/09/10 04:52:47;;;;;;;;;93.25;77.25;;;;;15.72;59.19;101672.66;4880430;29;11869;-85
2021/09/10 04:55:42;;;;;;;;;90.25;82.00;;;;;15.83;60.00;101663.53;4880226;29;11746;-86
2021/09/10 04:58:38;;;;;;;;;85.25;75.00;;;;;16.42;57.00;101678.34;4868170;29;12487;-85
2021/09/10 05:01:33;;;;;;;;;78.50;66.50;;;;;16.82;56.16;101661.75;4867391;29;11805;-85
2021/09/10 05:04:29;;;;;;;;;62.00;49.75;;;;;16.42;50.91;101668.00;4880925;29;11744;-86
2021/09/10 05:07:25;;;;;;;;;57.75;48.25;;;;;16.51;52.62;101671.50;4867883;29;11187;-86
2021/09/10 05:10:21;;;;;;;;;69.25;53.75;;;;;16.71;52.70;101664.19;4867896;29;11997;-85
2021/09/10 05:13:16;;;;;;;;;76.25;64.50;;;;;16.92;55.16;101670.47;4868163;29;11301;-86
2021/09/10 05:16:12;;;;;;;;;51.25;42.25;;;;;17.13;50.56;101666.72;4880098;29;11696;-85
2021/09/10 05:19:09;;;;;;;;;74.25;60.75;;;;;17.34;53.58;101664.59;4867569;29;10789;-87
2021/09/10 05:22:05;;;;;;;;;50.00;41.75;;;;;17.42;49.35;101668.41;4879021;29;11785;-86
2021/09/10 05:25:01;;;;;;;;;52.50;43.50;;;;;17.63;52.17;101660.63;4867615;29;10832;-87
2021/09/10 05:27:57;;;;;;;;;66.00;52.00;;;;;17.85;51.24;101662.09;4879787;29;11023;-86
2021/09/10 05:30:52;;;;;;;;;62.25;49.00;;;;;18.18;51.51;101663.81;4879780;29;11071;-88
2021/09/10 05:33:48;;;;;;;;;73.75;61.25;;;;;18.43;51.59;101665.25;4878896;29;11268;-86
2021/09/10 05:36:43;;;;;;;;;64.75;50.25;;;;;18.50;48.28;101665.44;4848896;29;11719;-84
2021/09/10 05:39:39;;;;;;;;;71.75;55.00;;;;;18.60;50.29;101664.91;4860196;29;11822;-85
2021/09/10 05:42:35;;;;;;;;;79.00;67.25;;;;;18.76;47.88;101666.91;4848633;29;11059;-86
2021/09/10 05:45:30;;;;;;;;;55.00;46.50;;;;;18.77;45.83;101662.91;4844896;29;12416;-86
2021/09/10 05:48:26;;;;;;;;;87.75;81.75;;;;;18.78;45.11;101670.97;4854008;29;10786;-87
2021/09/10 05:51:21;;;;;;;;;112.75;96.00;;;;;18.94;45.29;101667.31;4854556;29;11764;-84
2021/09/10 05:54:17;;;;;;;;;128.00;117.75;;;;;19.26;47.81;101660.47;4858109;29;11853;-87
2021/09/10 05:57:12;;;;;;;;;87.50;78.25;;;;;19.42;45.94;101660.41;4867166;29;11851;-89
2021/09/10 06:00:10;;;;;;;;;148.50;122.50;;;;;19.54;44.56;101660.25;4867140;29;11685;-88
2021/09/10 06:03:06;;;;;;;;;84.00;74.50;;;;;19.80;47.65;101667.25;4868153;29;12564;-87
2021/09/10 06:06:01;;;;;;;;;113.00;98.00;;;;;20.10;46.51;101673.88;4868737;29;11710;-86
2021/09/10 06:08:57;;;;;;;;;233.00;198.50;;;;;20.15;42.70;101676.34;4878803;29;11796;-88
2021/09/10 06:11:53;;;;;;;;;123.25;111.00;;;;;20.42;44.07;101671.63;4872090;29;8880;-90
2021/09/10 06:14:50;;;;;;;;;117.00;104.75;;;;;20.68;44.64;101670.09;4874400;29;11792;-89
2021/09/10 06:17:49;;;;;;;;;195.00;162.67;;;;;20.76;42.67;101671.81;4892300;29;11780;-89
2021/09/10 06:20:45;;;;;;;;;103.75;92.75;;;;;21.03;43.13;101669.84;4879322;29;8908;-90
2021/09/10 06:23:41;;;;;;;;;98.25;87.50;;;;;21.22;43.50;101663.28;4885310;29;11800;-87
2021/09/10 06:26:40;;;;;;;;;77.00;64.50;;;;;21.42;41.46;101670.44;4839392;29;11777;-88
2021/09/10 06:29:12;;;;;;;;;90.75;79.25;;;;;21.67;42.63;101667.13;4840138;29;11849;-89
2021/09/10 06:31:40;;;;;;;;;117.50;97.50;;;;;21.74;39.60;101670.84;4844246;29;11825;-87
2021/09/10 06:34:36;;;;;;;;;81.00;76.50;;;;;22.02;43.05;101661.09;4830932;29;11768;-88
2021/09/10 06:37:32;;;;;;;;;106.00;100.25;;;;;22.17;43.59;101662.91;4842071;29;11685;-90
2021/09/10 06:40:27;;;;;;;;;111.00;97.75;;;;;21.96;38.42;101657.00;4842761;29;11779;-88
2021/09/10 06:43:23;;;;;;;;;112.75;96.25;;;;;22.23;38.33;101663.34;4830002;29;11862;-89
2021/09/10 06:46:19;;;;;;;;;100.75;90.25;;;;;22.54;37.87;101656.38;4829369;29;11859;-85
2021/09/10 06:49:14;;;;;;;;;101.50;92.00;;;;;22.75;39.74;101657.38;4841200;29;11763;-91
2021/09/10 06:52:10;;;;;;;;;103.75;89.00;;;;;22.93;36.51;101656.75;4831529;29;11920;-90
2021/09/10 06:55:08;;;;;;;;;108.50;100.00;;;;;23.16;36.66;101656.50;4842716;29;11817;-88
2021/09/10 06:58:03;;;;;;;;;98.00;81.75;;;;;23.25;34.95;101651.28;4840653;29;11781;-88
2021/09/10 07:00:59;;;;;;;;;65.50;54.00;;;;;23.19;34.32;101658.50;4829176;29;11729;-86
2021/09/10 07:03:54;;;;;;;;;76.25;64.75;;;;;23.56;35.10;101655.47;4830236;29;10040;-91
2021/09/10 07:06:50;;;;;;;;;52.75;44.00;;;;;23.56;33.29;101653.47;4852014;29;10510;-84
2021/09/10 07:09:46;;;;;;;;;51.25;43.50;;;;;23.94;34.67;101656.84;4861260;29;9011;-88
2021/09/10 07:12:41;;;;;;;;;54.50;45.50;;;;;24.06;33.10;101650.81;4870377;29;9022;-87
2021/09/10 07:15:40;;;;;;;;;62.00;48.75;;;;;24.36;32.38;101658.16;4872411;29;8870;-90
2021/09/10 07:18:36;;;;;;;;;53.25;44.50;;;;;24.58;29.60;101659.78;4846996;29;8905;-88
2021/09/10 07:24:34;;;;;;;;;53.50;44.00;;;;;25.01;30.18;101654.09;4882208;29;8902;-87
2021/09/10 07:27:30;;;;;;;;;52.00;43.50;;;;;25.16;30.67;101652.88;4878854;29;8931;-90
2021/09/10 07:30:26;;;;;;;;;50.00;41.25;;;;;25.32;29.65;101658.09;4862509;29;8878;-90
2021/09/10 07:33:22;;;;;;;;;39.00;31.25;;;;;25.28;29.39;101654.44;4867326;29;8962;-88
2021/09/10 07:36:20;;;;;;;;;44.00;37.25;;;;;25.27;27.85;101650.00;4871744;29;8880;-87
2021/09/10 07:39:17;;;;;;;;;24.75;24.75;;;;;25.43;28.49;101663.69;4881938;29;8884;-87
2021/09/10 07:42:13;;;;;;;;;32.50;31.25;;;;;25.70;28.78;101645.00;4886872;29;8887;-87
2021/09/10 07:51:26;;;;;;;;;22.40;22.40;;;;;26.07;26.55;101649.28;1350133;23;10455;31
2021/09/10 07:54:21;;;;;;;;;25.00;25.00;;;;;25.75;26.38;101647.41;4791533;29;8763;-87
2021/09/10 07:57:17;;;;;;;;;20.80;20.80;;;;;26.20;27.06;101641.88;4776793;30;8897;-87
2021/09/10 08:00:17;;;;;;;;;30.40;28.60;;;;;26.58;27.37;101637.16;4774585;30;8921;-89
2021/09/10 08:03:12;;;;;;;;;40.50;35.25;;;;;26.79;29.01;101633.31;4772818;30;8874;-88
2021/09/10 08:06:08;;;;;;;;;38.00;33.50;;;;;26.98;29.25;101631.88;4782081;30;8900;-88
2021/09/10 08:09:05;;;;;;;;;19.40;19.40;;;;;26.82;27.78;101626.78;4774171;30;8959;-88
2021/09/10 08:12:00;;;;;;;;;14.20;14.00;;;;;26.99;27.30;101624.19;4785804;30;8882;-85
2021/09/10 08:14:57;;;;;;;;;16.80;16.80;;;;;26.98;26.57;101628.25;4784336;30;9098;-90
2021/09/10 08:17:52;;;;;;;;;9.20;9.20;;;;;27.17;26.14;101615.50;4783956;29;8882;-89
2021/09/10 08:20:48;;;;;;;;;14.80;14.80;;;;;27.50;26.95;101620.38;4785549;29;8893;-89
2021/09/10 08:23:48;;;;;;;;;12.00;12.00;;;;;27.54;25.76;101609.78;4789873;29;8894;-91
2021/09/10 08:26:46;;;;;;;;;13.20;13.20;;;;;27.81;25.09;101604.13;4789959;30;8886;-89
2021/09/10 08:29:42;;;;;;;;;10.20;10.20;;;;;28.00;25.15;101614.03;4782640;30;9040;-91
2021/09/10 08:32:37;;;;;;;;;12.80;12.80;;;;;28.11;24.43;101611.00;4786608;29;8988;-85
2021/09/10 08:35:33;;;;;;;;;10.40;10.40;;;;;27.94;23.43;101605.16;4786656;29;9652;-89
2021/09/10 08:38:29;;;;;;;;;12.20;11.80;;;;;28.03;24.58;101590.41;4784702;29;8882;-83
2021/09/10 08:41:28;;;;;;;;;21.40;19.80;;;;;28.24;25.33;101594.97;4784856;29;8909;-88
2021/09/10 08:44:27;;;;;;;;;11.60;11.60;;;;;28.35;25.28;101601.28;4785655;29;8869;-90
2021/09/10 08:47:23;;;;;;;;;11.40;11.00;;;;;28.74;25.03;101599.78;4787716;29;8902;-88
2021/09/10 08:50:19;;;;;;;;;12.20;12.20;;;;;28.97;24.63;101588.41;4776775;30;8897;-89
2021/09/10 08:53:15;;;;;;;;;14.00;14.00;;;;;29.23;23.47;101588.72;4778734;30;8919;-88
2021/09/10 08:56:11;;;;;;;;;12.00;12.00;;;;;29.16;24.36;101583.16;4775039;30;8875;-88
2021/09/10 08:59:15;;;;;;;;;14.20;14.20;;;;;28.95;24.46;101588.03;4784383;29;8894;-86
2021/09/10 09:02:13;;;;;;;;;10.80;10.80;;;;;29.13;22.88;101572.63;4777604;30;8921;-87
2021/09/10 09:05:24;;;;;;;;;11.00;11.00;;;;;28.98;22.76;101572.13;4785735;30;8910;-87
2021/09/10 09:08:19;;;;;;;;;9.80;9.80;;;;;29.25;22.90;101567.09;4774151;29;8993;-89
2021/09/10 09:11:15;;;;;;;;;13.20;11.60;;;;;29.32;24.36;101572.63;4773287;30;8894;-87
2021/09/10 09:14:11;;;;;;;;;11.80;11.80;;;;;29.62;23.80;101557.34;4773986;29;8897;-86
2021/09/10 09:17:37;;;;;;;;;10.40;10.40;;;;;28.90;22.63;101560.06;4783297;30;9010;-88
2021/09/10 09:20:34;;;;;;;;;11.00;11.00;;;;;29.47;22.56;101563.78;4783349;29;8904;-89
2021/09/10 09:23:29;;;;;;;;;10.00;10.00;;;;;29.82;23.35;101554.41;4782829;29;8889;-88
2021/09/10 09:26:29;;;;;;;;;8.00;8.00;;;;;29.84;22.57;101548.28;4782851;29;8886;-89
2021/09/10 09:29:30;;;;;;;;;11.00;11.00;;;;;30.23;22.28;101555.09;4783220;29;8871;-92
2021/09/10 09:32:26;;;;;;;;;10.20;10.20;;;;;30.30;22.32;101537.81;4783872;29;8921;-87
2021/09/10 09:35:27;;;;;;;;;11.20;11.20;;;;;30.27;21.06;101533.78;4782060;29;8910;-92
2021/09/10 09:38:29;;;;;;;;;17.60;17.60;;;;;30.02;23.63;101536.44;4783799;29;8954;-91
2021/09/10 09:41:25;;;;;;;;;13.80;13.00;;;;;30.70;22.61;101541.22;4766342;30;8889;-85
2021/09/10 09:44:25;;;;;;;;;11.60;11.60;;;;;30.73;21.59;101538.28;4765663;30;9031;-86
2021/09/10 09:47:21;;;;;;;;;12.00;12.00;;;;;30.94;21.13;101531.16;4771882;30;8913;-84
2021/09/10 09:50:20;;;;;;;;;15.60;15.20;;;;;31.22;21.56;101540.97;4785923;29;8899;-87
2021/09/10 09:53:16;;;;;;;;;15.40;15.40;;;;;31.14;22.16;101531.00;4781755;29;8928;-85
2021/09/10 09:56:12;;;;;;;;;5.20;5.20;;;;;31.18;21.04;101528.00;4751665;30;9660;-88
2021/09/10 09:59:08;;;;;;;;;9.80;9.80;;;;;30.49;21.00;101527.50;4784711;29;8867;-85
2021/09/10 10:02:04;;;;;;;;;9.80;9.80;;;;;31.11;21.00;101525.38;4781989;30;9005;-84
2021/09/10 10:05:00;;;;;;;;;29.20;26.60;;;;;30.88;21.27;101515.03;4759654;30;8918;-83
2021/09/10 10:08:09;;;;;;;;;12.20;12.20;;;;;30.75;21.32;101517.03;4752879;30;8877;-81
2021/09/10 10:11:13;;;;;;;;;21.80;21.60;;;;;30.49;21.40;101522.59;4754511;30;8888;-82
2021/09/10 10:14:13;;;;;;;;;11.00;11.00;;;;;30.56;20.90;101513.84;4780120;29;8918;-85
2021/09/10 10:17:30;;;;;;;;;10.20;10.20;;;;;30.56;20.21;101510.19;4764176;29;8914;-82
2021/09/10 10:20:44;;;;;;;;;10.40;10.40;;;;;31.34;21.27;101502.22;4778698;29;8886;-82
2021/09/10 10:23:42;;;;;;;;;19.40;19.40;;;;;31.50;21.34;101510.69;4787446;29;8887;-83
2021/09/10 10:26:39;;;;;;;;;10.60;10.60;;;;;31.44;20.34;101500.28;4782278;29;8878;-89
2021/09/10 10:29:37;;;;;;;;;12.00;12.00;;;;;31.34;20.47;101504.28;4776939;30;8912;-87
2021/09/10 10:32:40;;;;;;;;;7.60;7.60;;;;;31.67;20.05;101494.25;4772932;29;8883;-91
2021/09/10 10:35:37;;;;;;;;;23.40;21.40;;;;;31.85;20.59;101487.97;4791285;29;9050;-87
2021/09/10 10:38:33;;;;;;;;;20.80;19.80;;;;;32.29;20.95;101488.91;4777730;29;8918;-84
2021/09/10 10:42:01;;;;;;;;;12.60;12.60;;;;;32.29;20.89;101488.91;4786529;29;8908;-88
2021/09/10 10:44:57;;;;;;;;;14.60;13.80;;;;;31.85;20.79;101487.16;4771009;29;8874;-91
2021/09/10 10:47:56;;;;;;;;;16.60;16.00;;;;;32.08;21.99;101472.47;4780648;29;8873;-87
2021/09/10 10:50:52;;;;;;;;;19.80;19.80;;;;;32.62;21.50;101472.19;4780077;29;8910;-90
2021/09/10 10:53:47;;;;;;;;;13.80;13.80;;;;;32.38;21.03;101468.19;4779906;30;8966;-89
2021/09/10 10:56:43;;;;;;;;;16.20;16.20;;;;;32.69;20.87;101459.66;4762308;30;8971;-90
2021/09/10 10:59:39;;;;;;;;;15.40;15.40;;;;;32.69;21.25;101458.88;4754295;30;8885;-88
2021/09/10 11:02:38;;;;;;;;;19.80;19.80;;;;;32.48;21.02;101469.03;4762146;30;8961;-87
2021/09/10 11:05:33;;;;;;;;;22.40;22.40;;;;;32.87;21.30;101465.53;4757390;30;8885;-88
2021/09/10 11:08:42;;;;;;;;;16.60;16.60;;;;;32.80;21.18;101454.31;4778028;29;8897;-89
2021/09/10 11:11:39;;;;;;;;;17.00;16.80;;;;;32.83;22.39;101447.69;4784053;29;8876;-85
2021/09/10 11:14:42;;;;;;;;;26.20;21.60;;;;;32.07;21.23;101450.84;4776843;30;8905;-89
2021/09/10 11:17:38;;;;;;;;;19.60;18.60;;;;;32.49;20.84;101444.88;4774045;29;8864;-90
2021/09/10 11:20:43;;;;;;;;;18.60;18.60;;;;;32.85;21.27;101435.78;4797517;29;8880;-90
2021/09/10 11:23:38;;;;;;;;;15.60;15.60;;;;;32.24;22.96;101429.38;4787494;30;9002;-82
2021/09/10 11:26:35;;;;;;;;;19.00;17.80;;;;;32.95;21.34;101430.88;4778709;30;8890;-89
2021/09/10 11:29:37;;;;;;;;;20.00;20.00;;;;;33.02;21.49;101419.94;4785481;29;8911;-85
2021/09/10 11:32:34;;;;;;;;;19.20;18.80;;;;;33.00;20.94;101418.81;4791479;29;8891;-89
2021/09/10 11:35:36;;;;;;;;;18.40;18.40;;;;;33.22;21.47;101421.66;4796376;29;8902;-87
2021/09/10 11:38:32;;;;;;;;;19.60;19.60;;;;;32.79;21.33;101420.41;4796948;29;8907;-92
2021/09/10 11:41:31;;;;;;;;;20.20;20.20;;;;;33.15;23.05;101406.31;4796864;29;9010;-89
2021/09/10 11:44:27;;;;;;;;;18.60;18.20;;;;;32.69;22.39;101407.31;4796968;29;8879;-87
2021/09/10 11:47:24;;;;;;;;;21.80;21.80;;;;;32.76;22.26;101404.97;4774184;29;8874;-90
2021/09/10 11:50:20;;;;;;;;;19.80;19.80;;;;;33.06;22.67;101394.84;4769132;29;8880;-88
2021/09/10 11:53:43;;;;;;;;;26.20;24.00;;;;;32.39;23.18;101394.56;4758924;30;8883;-82
2021/09/10 11:56:39;;;;;;;;;26.60;26.40;;;;;32.73;23.27;101385.06;4761196;30;8892;-81
2021/09/10 11:59:45;;;;;;;;;24.00;24.00;;;;;32.97;23.25;101386.16;4779792;30;8872;-83
2021/09/10 12:02:41;;;;;;;;;26.20;25.20;;;;;32.91;22.96;101386.00;4770732;29;8909;-84
2021/09/10 12:05:36;;;;;;;;;23.40;23.40;;;;;32.97;22.98;101376.78;4769361;29;8866;-82
2021/09/10 12:08:32;;;;;;;;;23.00;22.40;;;;;33.15;22.51;101371.13;4761064;30;8915;-81
2021/09/10 12:11:28;;;;;;;;;19.60;19.60;;;;;33.00;22.58;101361.53;4768215;30;8870;-82
2021/09/10 12:14:43;;;;;;;;;25.00;24.20;;;;;32.97;23.17;101371.84;4772287;30;8925;-83
2021/09/10 12:17:39;;;;;;;;;34.00;29.40;;;;;33.33;23.03;101351.13;4764919;30;8869;-85
2021/09/10 12:20:34;;;;;;;;;25.00;24.60;;;;;33.42;23.42;101351.16;4759089;30;9039;-83
2021/09/10 12:23:30;;;;;;;;;29.60;28.20;;;;;33.62;23.36;101350.75;4764427;29;8892;-81
2021/09/10 12:26:25;;;;;;;;;25.60;25.20;;;;;33.67;23.61;101349.31;4754541;30;8889;-82
2021/09/10 12:29:24;;;;;;;;;29.40;27.80;;;;;33.53;22.97;101339.25;4754495;30;9580;-81
2021/09/10 12:32:19;;;;;;;;;24.20;24.20;;;;;33.64;23.41;101342.44;4754630;30;9034;-83
2021/09/10 12:35:15;;;;;;;;;26.00;25.60;;;;;33.59;22.74;101333.72;4775247;29;8899;-82
2021/09/10 12:38:16;;;;;;;;;25.00;24.00;;;;;33.93;22.24;101324.81;4787454;29;8921;-82
2021/09/10 12:41:12;;;;;;;;;23.40;23.40;;;;;33.88;22.76;101330.34;4785021;29;8900;-82
2021/09/10 12:44:09;;;;;;;;;33.60;29.60;;;;;34.07;22.38;101323.38;4782359;29;8868;-84
2021/09/10 12:47:04;;;;;;;;;28.20;28.00;;;;;33.78;22.88;101320.97;4780330;29;8876;-80
2021/09/10 12:50:00;;;;;;;;;28.60;27.60;;;;;33.97;23.08;101316.03;4771193;30;8890;-82
2021/09/10 12:52:56;;;;;;;;;26.00;25.20;;;;;33.60;23.30;101312.34;4777315;30;8874;-82
2021/09/10 12:55:52;;;;;;;;;30.20;29.40;;;;;32.75;23.74;101316.69;4780223;29;8907;-84
2021/09/10 12:58:51;;;;;;;;;27.40;26.00;;;;;33.06;23.56;101308.88;4782200;29;9656;-83
2021/09/10 13:06:16;;;;;;;;;33.60;30.80;;;;;33.83;22.86;101300.25;4731724;30;8997;-83
2021/09/10 13:09:22;;;;;;;;;;;;;;;;;;;;;
2021/09/10 13:12:31;;;;;;;;;27.00;27.00;;;;;33.62;23.44;101295.47;4783044;29;8872;-85
2021/09/10 13:16:03;;;;;;;;;;;;;;;;;;;;;
2021/09/10 13:18:54;;;;;;;;;31.40;30.20;;;;;33.66;23.70;101301.81;4755513;30;8888;-84
2021/09/10 13:21:49;;;;;;;;;35.00;31.20;;;;;33.57;23.47;101288.28;4752249;30;8881;-85
2021/09/10 13:24:45;;;;;;;;;32.20;29.80;;;;;33.18;23.76;101295.69;4765746;30;8885;-88
2021/09/10 13:32:58;;;;;;;;;;;;;;;;;;;;;
2021/09/10 13:35:48;;;;;;;;;27.20;27.20;;;;;33.34;23.88;101281.06;4682056;30;8990;-89
2021/09/10 13:38:46;;;;;;;;;26.80;26.00;;;;;33.43;24.38;101280.28;4734001;30;8900;-89
2021/09/10 13:41:42;;;;;;;;;20.60;20.60;;;;;33.17;23.96;101283.41;4722422;30;8939;-85
2021/09/10 13:44:38;;;;;;;;;16.40;16.40;;;;;32.77;23.40;101276.91;4733228;30;8869;-86
2021/09/10 13:47:34;;;;;;;;;15.00;14.80;;;;;32.87;22.94;101279.34;4734191;30;8884;-84
2021/09/10 13:50:30;;;;;;;;;15.60;15.60;;;;;32.97;23.13;101279.38;4744011;30;9621;-84
2021/09/10 13:53:25;;;;;;;;;14.80;14.80;;;;;32.95;23.67;101276.19;4734840;30;8877;-89